Time;durP1;ratioP1;P1;durP2;ratioP2;P2;SDS_P1;SDS_P2;PMS_P1;PMS_P2;Temp;Humidity;BMP_temperature;BMP_pressure;BME280_temperature;BME280_humidity;BME280_pressure;Samples;Min_cycle;Max_cycle;Signal;HPM_P1;HPM_P2
2021/06/13 00:00:51;;;;;;;7.70;3.05;;;14.80;68.40;;;;;;2077747;28;20030;-82
2021/06/13 00:01:51;;;;;;;5.88;2.45;;;14.80;68.40;;;;;;2077750;28;20038;-82
2021/06/13 00:02:52;;;;;;;6.63;3.03;;;14.80;68.40;;;;;;2070652;28;20033;-82
2021/06/13 00:03:53;;;;;;;5.32;2.35;;;14.80;68.50;;;;;;2071339;28;20030;-82
2021/06/13 00:04:54;;;;;;;6.20;2.58;;;14.80;68.50;;;;;;2062258;28;20030;-82
2021/06/13 00:05:55;;;;;;;7.85;2.78;;;14.80;68.60;;;;;;2078672;28;20120;-82
2021/06/13 00:06:56;;;;;;;5.13;2.97;;;14.80;68.60;;;;;;2080494;28;20047;-82
2021/06/13 00:07:56;;;;;;;5.93;2.70;;;14.80;68.60;;;;;;2072342;28;20022;-82
2021/06/13 00:08:57;;;;;;;7.30;3.00;;;14.80;68.70;;;;;;2088306;28;20048;-82
2021/06/13 00:09:58;;;;;;;5.68;2.75;;;14.80;68.70;;;;;;2077921;28;20068;-82
2021/06/13 00:10:59;;;;;;;8.52;3.22;;;14.80;68.70;;;;;;2086475;28;20457;-82
2021/06/13 00:12:00;;;;;;;6.05;2.70;;;14.80;68.80;;;;;;2085587;28;20031;-82
2021/06/13 00:13:01;;;;;;;6.50;2.83;;;14.80;68.80;;;;;;2087021;28;20415;-82
2021/06/13 00:14:02;;;;;;;6.63;3.05;;;14.80;68.80;;;;;;2086918;28;20498;-82
2021/06/13 00:15:05;;;;;;;6.60;2.70;;;14.80;68.90;;;;;;2087467;28;20423;-82
2021/06/13 00:16:07;;;;;;;5.70;2.75;;;14.80;69.00;;;;;;2088597;28;20021;-82
2021/06/13 00:17:07;;;;;;;6.40;2.80;;;14.70;69.00;;;;;;2080453;28;20399;-82
2021/06/13 00:18:08;;;;;;;5.07;2.67;;;14.70;69.00;;;;;;2089922;28;20028;-82
2021/06/13 00:19:09;;;;;;;9.20;3.00;;;14.70;69.10;;;;;;2087890;28;20021;-82
2021/06/13 00:20:20;;;;;;;6.22;2.90;;;14.70;69.20;;;;;;2088658;28;20699;-82
2021/06/13 00:21:21;;;;;;;7.07;2.90;;;14.70;69.30;;;;;;2093890;28;20028;-82
2021/06/13 00:22:22;;;;;;;5.88;3.20;;;14.70;69.30;;;;;;2087437;28;20071;-82
2021/06/13 00:23:22;;;;;;;7.38;2.88;;;14.70;69.30;;;;;;2081612;28;20029;-82
2021/06/13 00:24:23;;;;;;;4.93;2.70;;;14.60;69.30;;;;;;2074903;28;20018;-82
2021/06/13 00:25:24;;;;;;;6.30;2.90;;;14.60;69.40;;;;;;2075076;28;20034;-82
2021/06/13 00:26:25;;;;;;;5.45;3.03;;;14.60;69.50;;;;;;2085435;28;20035;-82
2021/06/13 00:27:25;;;;;;;7.05;2.90;;;14.60;69.60;;;;;;2096093;28;20570;-82
2021/06/13 00:28:26;;;;;;;6.70;3.00;;;14.50;69.60;;;;;;2080129;28;20132;-82
2021/06/13 00:29:27;;;;;;;6.15;2.95;;;14.60;69.70;;;;;;2069713;28;20080;-81
2021/06/13 00:30:27;;;;;;;5.47;3.00;;;14.60;69.80;;;;;;2094641;28;20592;-82
2021/06/13 00:31:28;;;;;;;5.65;2.67;;;14.60;69.80;;;;;;2080337;28;20030;-82
2021/06/13 00:32:29;;;;;;;6.60;3.30;;;14.50;69.80;;;;;;2069215;28;20030;-81
2021/06/13 00:33:30;;;;;;;6.93;3.30;;;14.50;69.80;;;;;;2081923;28;20032;-82
2021/06/13 00:34:30;;;;;;;6.18;3.00;;;14.50;69.80;;;;;;2071691;28;20025;-82
2021/06/13 00:35:31;;;;;;;7.60;3.13;;;14.50;69.80;;;;;;2054968;28;20122;-82
2021/06/13 00:36:32;;;;;;;10.27;3.33;;;14.50;69.90;;;;;;2063781;28;20041;-82
2021/06/13 00:37:33;;;;;;;6.03;2.72;;;14.50;69.80;;;;;;2070728;28;20534;-82
2021/06/13 00:38:34;;;;;;;6.30;3.28;;;14.50;69.90;;;;;;2070802;28;20030;-82
2021/06/13 00:39:35;;;;;;;6.53;3.10;;;14.50;70.00;;;;;;2067285;28;20050;-82
2021/06/13 00:40:36;;;;;;;5.57;2.97;;;14.50;70.00;;;;;;2072313;28;20038;-82
2021/06/13 00:41:37;;;;;;;6.40;3.10;;;14.50;70.10;;;;;;2072115;28;20018;-82
2021/06/13 00:42:37;;;;;;;7.72;3.35;;;14.40;70.20;;;;;;2071195;28;20550;-81
2021/06/13 00:43:38;;;;;;;7.38;3.05;;;14.50;70.20;;;;;;2063300;28;20546;-82
2021/06/13 00:44:39;;;;;;;5.70;2.80;;;14.40;70.30;;;;;;2065681;28;20027;-81
2021/06/13 00:45:39;;;;;;;6.95;3.60;;;14.40;71.00;;;;;;2074801;28;20026;-82
2021/06/13 00:46:40;;;;;;;6.70;3.13;;;14.40;70.50;;;;;;2078527;28;20120;-82
2021/06/13 00:47:41;;;;;;;6.40;2.90;;;14.30;70.50;;;;;;2064722;28;20540;-82
2021/06/13 00:48:42;;;;;;;6.45;2.88;;;14.30;70.60;;;;;;2070512;28;20393;-82
2021/06/13 00:49:43;;;;;;;6.10;2.88;;;14.30;70.60;;;;;;2071671;28;20037;-82
2021/06/13 00:50:50;;;;;;;5.43;3.10;;;14.30;70.70;;;;;;2063774;28;20105;-82
2021/06/13 00:51:51;;;;;;;7.07;3.28;;;14.30;70.70;;;;;;2064173;28;20037;-81
2021/06/13 00:52:53;;;;;;;6.97;3.13;;;14.30;70.70;;;;;;2066690;28;20282;-81
2021/06/13 00:53:53;;;;;;;7.07;3.17;;;14.30;70.70;;;;;;2069801;28;20042;-82
2021/06/13 00:54:54;;;;;;;6.50;2.90;;;14.30;70.80;;;;;;2071151;28;20080;-82
2021/06/13 00:55:58;;;;;;;7.10;3.15;;;14.30;70.80;;;;;;2069126;28;20038;-82
2021/06/13 00:57:00;;;;;;;6.70;3.05;;;14.30;70.90;;;;;;2055623;28;20848;-82
2021/06/13 00:58:01;;;;;;;5.93;3.15;;;14.30;70.90;;;;;;2068169;28;20061;-82
2021/06/13 00:59:02;;;;;;;5.28;2.78;;;14.30;71.00;;;;;;2070984;28;20070;-82
2021/06/13 01:00:04;;;;;;;9.18;3.20;;;14.30;71.00;;;;;;2064057;28;20153;-82
2021/06/13 01:01:05;;;;;;;6.40;3.15;;;14.30;71.10;;;;;;2071191;28;20084;-81
2021/06/13 01:02:05;;;;;;;6.57;2.90;;;14.30;71.10;;;;;;2063041;28;20096;-82
2021/06/13 01:03:07;;;;;;;6.75;3.03;;;14.30;71.10;;;;;;2071763;28;20039;-82
2021/06/13 01:04:08;;;;;;;6.82;3.05;;;14.30;71.10;;;;;;2080083;28;20029;-81
2021/06/13 01:05:09;;;;;;;6.10;2.85;;;14.20;71.10;;;;;;2079686;28;20499;-82
2021/06/13 01:06:11;;;;;;;6.13;3.40;;;14.30;71.20;;;;;;2071663;28;20030;-82
2021/06/13 01:07:44;;;;;;;5.32;3.00;;;14.20;71.20;;;;;;2062312;28;20080;-82
2021/06/13 01:08:55;;;;;;;5.45;3.03;;;14.30;71.20;;;;;;2070631;28;20026;-82
2021/06/13 01:10:05;;;;;;;6.70;3.00;;;14.20;71.20;;;;;;2071742;28;20112;-81
2021/06/13 01:11:24;;;;;;;6.63;2.72;;;14.20;71.20;;;;;;2078025;28;20044;-81
2021/06/13 01:12:28;;;;;;;6.38;3.35;;;14.20;71.20;;;;;;2079775;28;20491;-82
2021/06/13 01:13:49;;;;;;;6.32;2.90;;;14.20;71.20;;;;;;2080006;28;20025;-81
2021/06/13 01:15:02;;;;;;;7.85;3.35;;;14.20;71.30;;;;;;2080292;28;20071;-82
2021/06/13 01:16:16;;;;;;;6.05;2.85;;;14.20;71.30;;;;;;2081107;28;20065;-82
2021/06/13 01:17:27;;;;;;;6.97;3.13;;;14.20;71.30;;;;;;2080919;28;20116;-82
2021/06/13 01:18:50;;;;;;;6.72;3.10;;;14.20;71.40;;;;;;2088446;28;20029;-81
2021/06/13 01:20:19;;;;;;;6.47;3.15;;;14.20;71.40;;;;;;2077697;28;20032;-81
2021/06/13 01:21:28;;;;;;;5.40;2.63;;;14.10;71.40;;;;;;2078192;28;20033;-82
2021/06/13 01:22:43;;;;;;;6.05;2.80;;;14.10;71.50;;;;;;2079171;28;20041;-81
2021/06/13 01:23:58;;;;;;;6.50;3.22;;;14.10;71.50;;;;;;2078178;28;20751;-81
2021/06/13 01:25:26;;;;;;;6.03;3.25;;;14.10;71.50;;;;;;2078855;28;20124;-82
2021/06/13 01:26:32;;;;;;;6.35;2.90;;;14.10;71.70;;;;;;2077589;28;20511;-81
2021/06/13 01:28:09;;;;;;;7.55;3.33;;;14.00;71.60;;;;;;2085431;28;20502;-82
2021/06/13 01:29:18;;;;;;;6.07;2.78;;;14.00;71.70;;;;;;2088949;28;20045;-82
2021/06/13 01:30:19;;;;;;;6.32;3.08;;;14.00;71.70;;;;;;2083815;28;20028;-82
2021/06/13 01:31:24;;;;;;;6.95;3.00;;;14.00;71.80;;;;;;2080414;28;20029;-82
2021/06/13 01:32:30;;;;;;;7.10;3.28;;;13.90;71.80;;;;;;2089409;28;20055;-82
2021/06/13 01:33:33;;;;;;;8.65;3.22;;;14.00;72.00;;;;;;2087203;28;20502;-82
2021/06/13 01:34:45;;;;;;;6.22;2.95;;;13.90;72.00;;;;;;2088023;28;20037;-82
2021/06/13 01:35:47;;;;;;;6.15;3.20;;;13.90;72.00;;;;;;2087318;28;20111;-82
2021/06/13 01:36:49;;;;;;;8.00;3.20;;;13.90;72.10;;;;;;2086530;28;20410;-82
2021/06/13 01:37:53;;;;;;;5.95;3.10;;;13.90;72.20;;;;;;2086006;28;20045;-81
2021/06/13 01:38:56;;;;;;;7.43;3.35;;;13.90;72.30;;;;;;2088295;28;20029;-82
2021/06/13 01:40:06;;;;;;;6.47;3.10;;;13.80;72.30;;;;;;2088413;28;20362;-82
2021/06/13 01:41:10;;;;;;;8.30;3.30;;;13.90;72.40;;;;;;2088075;28;20025;-81
2021/06/13 01:42:11;;;;;;;6.40;3.38;;;13.80;72.40;;;;;;2087319;28;20302;-81
2021/06/13 01:43:13;;;;;;;5.85;3.00;;;13.80;72.40;;;;;;2080218;28;21073;-82
2021/06/13 01:44:14;;;;;;;6.03;3.00;;;13.80;72.50;;;;;;2079336;28;20041;-82
2021/06/13 01:45:19;;;;;;;6.68;3.13;;;13.80;72.50;;;;;;2087764;28;20127;-82
2021/06/13 01:46:22;;;;;;;6.35;3.55;;;13.80;72.60;;;;;;2078562;28;20045;-82
2021/06/13 01:47:25;;;;;;;6.35;3.00;;;13.80;72.60;;;;;;2087244;28;20090;-82
2021/06/13 01:48:26;;;;;;;5.50;2.88;;;13.80;72.70;;;;;;2086863;28;20043;-81
2021/06/13 01:49:28;;;;;;;6.88;2.85;;;13.80;72.70;;;;;;2069581;28;20431;-82
2021/06/13 01:50:30;;;;;;;8.07;3.20;;;13.70;72.80;;;;;;2071929;28;20103;-82
2021/06/13 01:51:31;;;;;;;6.20;2.97;;;13.80;72.90;;;;;;2087461;28;20029;-83
2021/06/13 01:52:34;;;;;;;6.03;3.13;;;13.70;72.90;;;;;;2080475;28;20095;-82
2021/06/13 01:53:41;;;;;;;5.75;3.03;;;13.70;73.10;;;;;;2070218;28;20036;-82
2021/06/13 01:54:45;;;;;;;6.28;3.20;;;13.70;73.10;;;;;;2072483;28;20411;-82
2021/06/13 01:55:48;;;;;;;7.03;3.28;;;13.70;73.10;;;;;;2085984;28;20059;-82
2021/06/13 01:56:51;;;;;;;6.47;3.50;;;13.70;73.70;;;;;;2080246;28;20033;-82
2021/06/13 01:57:53;;;;;;;6.22;3.35;;;13.80;73.20;;;;;;2096965;28;20045;-82
2021/06/13 01:58:56;;;;;;;6.35;3.13;;;13.70;73.10;;;;;;2097729;28;20096;-81
2021/06/13 01:59:59;;;;;;;7.13;3.50;;;13.70;73.10;;;;;;2098963;28;20029;-82
2021/06/13 02:01:00;;;;;;;6.93;3.30;;;13.70;73.10;;;;;;2088543;28;20025;-81
2021/06/13 02:02:04;;;;;;;8.57;3.75;;;13.70;73.10;;;;;;2092061;28;20100;-82
2021/06/13 02:03:06;;;;;;;7.68;3.30;;;13.70;73.10;;;;;;2091196;28;20397;-82
2021/06/13 02:04:08;;;;;;;7.35;2.95;;;13.80;73.20;;;;;;2073910;28;20030;-82
2021/06/13 02:05:10;;;;;;;6.07;3.10;;;13.80;73.20;;;;;;2081219;28;20736;-82
2021/06/13 02:06:12;;;;;;;6.45;3.03;;;13.80;73.20;;;;;;2079775;28;20448;-82
2021/06/13 02:07:13;;;;;;;5.45;3.00;;;13.80;73.20;;;;;;2072991;28;20547;-83
2021/06/13 02:08:16;;;;;;;6.32;3.28;;;13.80;73.30;;;;;;2089126;28;20021;-81
2021/06/13 02:09:20;;;;;;;6.78;3.10;;;13.80;73.30;;;;;;2090309;28;20022;-81
2021/06/13 02:10:22;;;;;;;6.25;3.00;;;13.80;73.30;;;;;;2095460;28;20454;-80
2021/06/13 02:11:24;;;;;;;6.72;3.22;;;13.80;73.30;;;;;;2096517;28;20021;-81
2021/06/13 02:12:25;;;;;;;6.55;3.00;;;13.80;73.40;;;;;;2088990;28;20010;-82
2021/06/13 02:13:27;;;;;;;7.55;3.30;;;13.80;73.40;;;;;;2071339;28;20057;-82
2021/06/13 02:14:29;;;;;;;8.77;3.28;;;13.80;73.40;;;;;;2069837;28;20084;-81
2021/06/13 02:15:31;;;;;;;6.95;3.30;;;13.80;73.40;;;;;;2080415;28;20075;-82
2021/06/13 02:16:32;;;;;;;6.45;3.00;;;13.80;73.40;;;;;;2094250;28;20033;-82
2021/06/13 02:17:35;;;;;;;6.35;3.25;;;13.80;73.40;;;;;;2087865;28;20064;-82
2021/06/13 02:18:36;;;;;;;6.60;3.15;;;13.80;73.40;;;;;;2086194;28;20410;-82
2021/06/13 02:19:41;;;;;;;6.45;3.38;;;13.80;73.50;;;;;;2087212;28;20544;-82
2021/06/13 02:20:41;;;;;;;6.43;3.10;;;13.80;73.50;;;;;;2093719;28;20027;-82
2021/06/13 02:21:45;;;;;;;6.95;2.83;;;13.80;73.50;;;;;;2079912;28;20080;-82
2021/06/13 02:22:47;;;;;;;6.55;3.03;;;13.80;74.20;;;;;;2077549;28;20060;-83
2021/06/13 02:23:48;;;;;;;7.85;3.53;;;13.70;73.50;;;;;;2087411;28;20017;-82
2021/06/13 02:24:49;;;;;;;6.35;3.08;;;13.70;73.60;;;;;;2088736;28;20533;-82
2021/06/13 02:25:50;;;;;;;5.68;3.28;;;13.70;73.60;;;;;;2086772;28;20430;-82
2021/06/13 02:26:51;;;;;;;7.07;3.10;;;13.70;73.70;;;;;;2089200;28;20021;-83
2021/06/13 02:27:58;;;;;;;5.65;3.30;;;13.70;73.80;;;;;;2091691;28;20029;-81
2021/06/13 02:28:59;;;;;;;7.10;3.00;;;13.70;73.90;;;;;;2096795;28;20021;-82
2021/06/13 02:30:02;;;;;;;6.97;3.33;;;13.70;73.90;;;;;;2095182;28;20083;-81
2021/06/13 02:31:06;;;;;;;9.02;3.42;;;13.70;73.90;;;;;;2082708;28;20061;-81
2021/06/13 02:32:09;;;;;;;8.38;3.72;;;13.70;74.00;;;;;;2089867;28;20056;-80
2021/06/13 02:33:11;;;;;;;7.32;3.38;;;13.70;74.10;;;;;;2096622;28;20052;-82
2021/06/13 02:34:18;;;;;;;8.38;3.70;;;13.60;74.00;;;;;;2088131;28;20079;-81
2021/06/13 02:35:19;;;;;;;6.88;3.35;;;13.60;74.10;;;;;;2087463;28;20043;-81
2021/06/13 02:36:21;;;;;;;5.43;3.10;;;13.60;74.10;;;;;;2086429;28;20029;-81
2021/06/13 02:37:25;;;;;;;6.18;3.22;;;13.70;74.20;;;;;;2086710;28;20078;-81
2021/06/13 02:38:27;;;;;;;7.20;3.50;;;13.60;74.20;;;;;;2093580;28;20024;-81
2021/06/13 02:39:28;;;;;;;6.28;3.25;;;13.60;74.20;;;;;;2077444;28;20033;-82
2021/06/13 02:40:29;;;;;;;8.07;3.20;;;13.60;74.30;;;;;;2070463;28;20033;-81
2021/06/13 02:41:32;;;;;;;6.45;3.25;;;13.60;74.20;;;;;;2080068;28;20014;-81
2021/06/13 02:42:32;;;;;;;7.32;3.70;;;13.60;74.30;;;;;;2087061;28;20036;-81
2021/06/13 02:43:33;;;;;;;5.60;3.15;;;13.60;74.30;;;;;;2095215;28;20481;-81
2021/06/13 02:44:34;;;;;;;8.38;3.50;;;13.60;74.30;;;;;;2087221;28;20036;-81
2021/06/13 02:45:35;;;;;;;7.80;3.42;;;13.60;74.30;;;;;;2085326;28;20116;-81
2021/06/13 02:46:36;;;;;;;7.28;3.28;;;13.60;74.40;;;;;;2079719;28;20612;-81
2021/06/13 02:47:37;;;;;;;6.75;3.30;;;13.60;74.40;;;;;;2077180;28;20037;-81
2021/06/13 02:48:38;;;;;;;7.32;3.30;;;13.60;74.50;;;;;;2079363;28;20037;-81
2021/06/13 02:49:38;;;;;;;6.43;3.42;;;13.50;74.50;;;;;;2076639;28;20029;-81
2021/06/13 02:50:39;;;;;;;5.60;3.03;;;13.50;74.60;;;;;;2078856;28;20064;-81
2021/06/13 02:52:02;;;;;;;6.78;3.25;;;13.50;74.60;;;;;;2086408;28;20047;-82
2021/06/13 02:53:17;;;;;;;8.32;3.20;;;13.50;74.70;;;;;;2086919;28;20033;-81
2021/06/13 02:54:19;;;;;;;6.75;3.15;;;13.50;74.70;;;;;;2085931;28;20029;-82
2021/06/13 02:55:27;;;;;;;6.32;3.15;;;13.50;74.60;;;;;;2080223;28;20112;-82
2021/06/13 02:56:42;;;;;;;6.18;3.22;;;13.50;74.70;;;;;;2081530;28;20112;-81
2021/06/13 02:57:51;;;;;;;5.75;3.25;;;13.50;74.70;;;;;;2080954;28;20056;-81
2021/06/13 02:59:12;;;;;;;6.03;3.15;;;13.50;74.80;;;;;;2079800;28;20029;-82
2021/06/13 03:00:12;;;;;;;;;;;13.50;74.80;;;;;;2089391;28;20040;-81
2021/06/13 03:01:21;;;;;;;6.13;3.10;;;13.40;74.60;;;;;;2087630;28;20310;-81
2021/06/13 03:02:28;;;;;;;5.90;3.20;;;13.40;74.60;;;;;;2087325;28;20039;-81
2021/06/13 03:03:33;;;;;;;5.63;2.97;;;13.40;74.70;;;;;;2088357;28;20037;-81
2021/06/13 03:04:35;;;;;;;6.53;3.35;;;13.40;74.80;;;;;;2078224;28;20452;-81
2021/06/13 03:05:35;;;;;;;6.68;3.22;;;13.30;74.80;;;;;;2068186;28;20036;-81
2021/06/13 03:06:37;;;;;;;7.32;3.47;;;13.30;74.90;;;;;;2077613;28;20407;-81
2021/06/13 03:07:39;;;;;;;5.45;3.03;;;13.30;75.10;;;;;;2078720;28;20036;-81
2021/06/13 03:08:40;;;;;;;7.68;3.53;;;13.30;75.20;;;;;;2078362;28;20041;-82
2021/06/13 03:09:41;;;;;;;7.20;3.45;;;13.30;75.20;;;;;;2080159;28;20419;-82
2021/06/13 03:10:42;;;;;;;7.30;3.28;;;13.30;75.20;;;;;;2078063;28;20462;-82
2021/06/13 03:11:45;;;;;;;5.82;3.03;;;13.30;75.20;;;;;;2087163;28;20032;-82
2021/06/13 03:12:47;;;;;;;6.50;3.42;;;13.30;75.30;;;;;;2087459;28;20036;-82
2021/06/13 03:13:48;;;;;;;6.50;3.50;;;13.30;75.30;;;;;;2084890;28;20033;-82
2021/06/13 03:14:51;;;;;;;6.97;3.47;;;13.30;75.30;;;;;;2084835;28;20082;-82
2021/06/13 03:15:52;;;;;;;6.05;3.40;;;13.30;75.30;;;;;;2078651;28;20026;-81
2021/06/13 03:16:54;;;;;;;5.93;3.08;;;13.30;75.30;;;;;;2078649;28;20060;-82
2021/06/13 03:17:55;;;;;;;6.78;3.35;;;13.30;75.40;;;;;;2087784;28;20051;-82
2021/06/13 03:18:56;;;;;;;7.28;3.28;;;13.30;75.50;;;;;;2087248;28;20033;-82
2021/06/13 03:19:57;;;;;;;7.57;3.40;;;13.30;75.50;;;;;;2079304;28;20025;-82
2021/06/13 03:21:00;;;;;;;6.55;3.22;;;13.20;76.20;;;;;;2089006;28;20029;-82
2021/06/13 03:22:03;;;;;;;7.30;3.42;;;13.20;75.60;;;;;;2085867;28;20510;-82
2021/06/13 03:23:04;;;;;;;6.28;3.53;;;13.20;75.70;;;;;;2087043;28;20067;-82
2021/06/13 03:24:06;;;;;;;7.15;3.50;;;13.20;75.70;;;;;;2084392;28;20476;-81
2021/06/13 03:25:08;;;;;;;7.70;3.60;;;13.20;75.80;;;;;;2078995;28;20583;-81
2021/06/13 03:26:10;;;;;;;7.65;3.63;;;13.20;75.80;;;;;;2078366;28;20041;-81
2021/06/13 03:27:11;;;;;;;7.18;3.60;;;13.20;75.80;;;;;;2087207;28;20079;-81
2021/06/13 03:28:14;;;;;;;6.45;3.63;;;13.20;75.90;;;;;;2095265;28;20020;-82
2021/06/13 03:29:17;;;;;;;6.13;3.15;;;13.20;75.90;;;;;;2093882;28;20017;-82
2021/06/13 03:30:19;;;;;;;7.75;3.45;;;13.20;75.90;;;;;;2088106;28;20167;-81
2021/06/13 03:31:20;;;;;;;8.45;3.20;;;13.20;75.90;;;;;;2077100;28;20037;-82
2021/06/13 03:32:23;;;;;;;7.45;3.80;;;13.20;75.90;;;;;;2079585;28;20025;-81
2021/06/13 03:33:27;;;;;;;7.32;3.70;;;13.20;76.00;;;;;;2079435;28;20038;-81
2021/06/13 03:34:27;;;;;;;8.10;3.92;;;13.20;76.10;;;;;;2078613;28;20365;-82
2021/06/13 03:35:29;;;;;;;7.32;3.75;;;13.20;76.00;;;;;;2070322;28;20156;-81
2021/06/13 03:36:31;;;;;;;7.75;3.92;;;13.20;76.00;;;;;;2061622;28;20037;-82
2021/06/13 03:37:32;;;;;;;6.82;3.50;;;13.20;76.00;;;;;;2070164;28;20034;-81
2021/06/13 03:38:34;;;;;;;7.32;3.53;;;13.20;76.00;;;;;;2071855;28;20057;-81
2021/06/13 03:39:35;;;;;;;6.85;3.53;;;13.20;76.00;;;;;;2068706;28;20570;-82
2021/06/13 03:40:37;;;;;;;8.25;4.13;;;13.20;76.00;;;;;;2073780;28;20061;-82
2021/06/13 03:41:38;;;;;;;7.00;3.50;;;13.20;76.00;;;;;;2078765;28;20084;-82
2021/06/13 03:42:41;;;;;;;6.32;3.28;;;13.20;76.00;;;;;;2079798;28;20503;-81
2021/06/13 03:43:42;;;;;;;6.45;3.83;;;13.30;76.10;;;;;;2078197;28;20028;-82
2021/06/13 03:44:45;;;;;;;5.85;3.22;;;13.30;76.10;;;;;;2078515;28;20033;-81
2021/06/13 03:45:48;;;;;;;7.72;3.72;;;13.30;76.10;;;;;;2076499;28;20035;-81
2021/06/13 03:46:50;;;;;;;7.43;3.60;;;13.20;76.10;;;;;;2078575;28;20025;-81
2021/06/13 03:47:53;;;;;;;5.32;3.25;;;13.20;76.10;;;;;;2073238;28;20068;-82
2021/06/13 03:48:56;;;;;;;6.75;3.40;;;13.20;76.20;;;;;;2080688;28;20509;-82
2021/06/13 03:49:57;;;;;;;8.65;3.90;;;13.30;76.20;;;;;;2079116;28;20033;-82
2021/06/13 03:50:59;;;;;;;6.57;3.60;;;13.30;76.20;;;;;;2078347;28;20561;-82
2021/06/13 03:52:00;;;;;;;7.38;3.60;;;13.30;76.20;;;;;;2080748;28;20530;-82
2021/06/13 03:53:02;;;;;;;6.32;3.40;;;13.30;76.20;;;;;;2074986;28;20034;-82
2021/06/13 03:54:03;;;;;;;7.68;4.25;;;13.20;76.20;;;;;;2066856;28;20034;-82
2021/06/13 03:55:04;;;;;;;7.45;3.63;;;13.30;76.20;;;;;;2076994;28;20411;-82
2021/06/13 03:56:05;;;;;;;6.45;3.33;;;13.20;76.20;;;;;;2085553;28;20996;-82
2021/06/13 03:57:07;;;;;;;5.88;3.30;;;13.20;76.20;;;;;;2078765;28;20539;-82
2021/06/13 03:58:10;;;;;;;5.80;3.33;;;13.20;76.30;;;;;;2068835;28;20042;-82
2021/06/13 03:59:11;;;;;;;8.25;3.50;;;13.20;76.30;;;;;;2078563;28;20061;-82
2021/06/13 04:00:14;;;;;;;7.03;3.67;;;13.20;76.40;;;;;;2070225;28;20065;-81
2021/06/13 04:01:21;;;;;;;7.47;3.30;;;13.20;76.40;;;;;;2068526;28;20091;-82
2021/06/13 04:02:23;;;;;;;6.18;3.67;;;13.20;76.50;;;;;;2082559;28;21494;-82
2021/06/13 04:03:27;;;;;;;6.85;3.75;;;13.20;76.50;;;;;;2080162;28;20024;-81
2021/06/13 04:04:30;;;;;;;6.53;3.38;;;13.20;76.50;;;;;;2081110;28;20484;-82
2021/06/13 04:05:31;;;;;;;7.60;3.75;;;13.20;76.50;;;;;;2080527;28;20503;-82
2021/06/13 04:06:32;;;;;;;7.10;3.60;;;13.20;76.50;;;;;;2075943;28;20076;-81
2021/06/13 04:07:33;;;;;;;7.55;3.65;;;13.20;76.60;;;;;;2077425;28;20048;-81
2021/06/13 04:08:37;;;;;;;6.97;3.67;;;13.20;76.60;;;;;;2079257;28;20037;-81
2021/06/13 04:09:39;;;;;;;6.93;3.72;;;13.20;76.60;;;;;;2085726;28;20030;-81
2021/06/13 04:10:46;;;;;;;6.50;3.58;;;13.20;76.60;;;;;;2077794;28;20029;-81
2021/06/13 04:11:49;;;;;;;7.22;3.80;;;13.30;76.60;;;;;;2079288;28;20151;-81
2021/06/13 04:12:51;;;;;;;7.35;3.63;;;13.30;76.60;;;;;;2070223;28;20041;-81
2021/06/13 04:13:56;;;;;;;7.97;3.95;;;13.30;76.50;;;;;;2062544;28;20114;-81
2021/06/13 04:14:59;;;;;;;8.13;3.50;;;13.30;76.50;;;;;;2068641;28;20132;-81
2021/06/13 04:16:05;;;;;;;6.53;3.17;;;13.30;76.40;;;;;;2076895;28;20014;-81
2021/06/13 04:17:06;;;;;;;7.13;3.50;;;13.40;76.50;;;;;;2084209;28;20471;-81
2021/06/13 04:18:09;;;;;;;5.90;3.30;;;13.30;76.30;;;;;;2068904;28;20041;-81
2021/06/13 04:19:10;;;;;;;9.20;3.35;;;13.40;76.30;;;;;;2063176;28;20034;-82
2021/06/13 04:20:11;;;;;;;7.63;4.10;;;13.40;76.20;;;;;;2070659;28;20033;-82
2021/06/13 04:21:14;;;;;;;7.25;3.75;;;13.50;76.20;;;;;;2070135;28;20037;-82
2021/06/13 04:22:17;;;;;;;7.05;3.33;;;13.50;76.10;;;;;;2082741;28;20026;-82
2021/06/13 04:23:18;;;;;;;9.57;3.92;;;13.60;76.00;;;;;;2076409;28;20025;-82
2021/06/13 04:24:20;;;;;;;6.65;3.67;;;13.60;76.00;;;;;;2077568;28;20566;-82
2021/06/13 04:25:21;;;;;;;6.20;3.28;;;13.60;75.90;;;;;;2073135;28;20049;-82
2021/06/13 04:26:24;;;;;;;7.70;4.15;;;13.60;75.90;;;;;;2079972;28;20091;-81
2021/06/13 04:27:27;;;;;;;5.88;3.55;;;13.60;75.80;;;;;;2080263;28;20081;-82
2021/06/13 04:28:29;;;;;;;7.95;3.63;;;13.70;75.90;;;;;;2070851;28;20055;-81
2021/06/13 04:29:30;;;;;;;6.80;3.53;;;13.70;75.80;;;;;;2071957;28;20092;-82
2021/06/13 04:30:31;;;;;;;6.88;3.80;;;13.70;75.70;;;;;;2078995;28;20037;-82
2021/06/13 04:31:32;;;;;;;7.97;3.83;;;13.80;75.70;;;;;;2087933;28;20526;-82
2021/06/13 04:32:33;;;;;;;7.38;3.78;;;13.80;75.60;;;;;;2088909;28;20036;-82
2021/06/13 04:33:34;;;;;;;6.82;3.75;;;13.80;75.60;;;;;;2086316;28;20033;-81
2021/06/13 04:34:35;;;;;;;6.57;3.17;;;13.80;75.60;;;;;;2078845;28;20517;-82
2021/06/13 04:35:35;;;;;;;7.25;3.53;;;13.80;75.50;;;;;;2077095;28;20038;-82
2021/06/13 04:36:36;;;;;;;7.15;3.58;;;13.90;75.60;;;;;;2077626;28;20100;-81
2021/06/13 04:37:37;;;;;;;6.60;3.65;;;13.90;75.60;;;;;;2085837;28;20594;-82
2021/06/13 04:38:38;;;;;;;7.32;3.55;;;13.80;75.50;;;;;;2085645;28;20040;-82
2021/06/13 04:39:39;;;;;;;5.72;3.13;;;13.90;75.70;;;;;;2088694;28;20112;-82
2021/06/13 04:40:40;;;;;;;7.28;3.67;;;13.90;75.70;;;;;;2079221;28;20687;-81
2021/06/13 04:41:40;;;;;;;8.00;3.70;;;13.90;75.70;;;;;;2070983;28;20108;-82
2021/06/13 04:42:41;;;;;;;7.93;3.70;;;13.90;75.70;;;;;;2067998;28;20069;-81
2021/06/13 04:43:42;;;;;;;7.43;3.90;;;13.90;75.60;;;;;;2069339;28;20038;-81
2021/06/13 04:44:43;;;;;;;7.38;3.40;;;13.90;75.70;;;;;;2087372;28;20107;-82
2021/06/13 04:45:44;;;;;;;8.60;3.50;;;13.90;75.60;;;;;;2086395;28;20029;-82
2021/06/13 04:46:44;;;;;;;6.18;3.38;;;13.90;75.70;;;;;;2088054;28;20415;-82
2021/06/13 04:47:45;;;;;;;5.57;3.20;;;13.90;75.70;;;;;;2069972;28;20044;-81
2021/06/13 04:48:46;;;;;;;6.65;3.40;;;13.90;75.60;;;;;;2072193;28;20471;-82
2021/06/13 04:49:48;;;;;;;6.50;3.38;;;13.90;75.70;;;;;;2076959;28;20033;-82
2021/06/13 04:50:50;;;;;;;6.40;3.33;;;13.90;75.70;;;;;;2078353;28;20582;-81
2021/06/13 04:51:54;;;;;;;7.45;3.72;;;13.90;75.70;;;;;;2071148;28;20034;-81
2021/06/13 04:52:58;;;;;;;7.20;3.47;;;13.90;75.70;;;;;;2080106;28;20025;-81
2021/06/13 04:53:59;;;;;;;6.55;3.30;;;13.90;75.80;;;;;;2085832;28;20360;-81
2021/06/13 04:55:19;;;;;;;6.30;3.80;;;13.90;75.80;;;;;;2087639;28;20076;-81
2021/06/13 04:56:28;;;;;;;6.60;3.22;;;13.90;75.80;;;;;;2078377;28;20392;-81
2021/06/13 04:57:32;;;;;;;6.90;3.28;;;13.90;75.80;;;;;;2079787;28;20500;-81
2021/06/13 04:58:32;;;;;;;6.15;3.20;;;13.90;75.80;;;;;;2087061;28;20260;-81
2021/06/13 04:59:33;;;;;;;7.28;3.35;;;13.90;75.80;;;;;;2079201;28;20463;-81
2021/06/13 05:00:34;;;;;;;7.55;3.10;;;13.90;75.80;;;;;;2069483;28;20039;-81
2021/06/13 05:01:35;;;;;;;6.85;3.53;;;13.90;75.90;;;;;;2069085;28;20072;-82
2021/06/13 05:02:36;;;;;;;6.40;3.60;;;14.00;75.90;;;;;;2069631;28;20034;-82
2021/06/13 05:03:37;;;;;;;7.28;3.55;;;14.00;75.80;;;;;;2080708;28;20021;-82
2021/06/13 05:04:37;;;;;;;6.25;3.33;;;14.10;75.80;;;;;;2089233;28;20029;-82
2021/06/13 05:05:38;;;;;;;7.90;3.53;;;14.10;75.60;;;;;;2088832;28;20025;-82
2021/06/13 05:06:43;;;;;;;7.60;3.30;;;14.20;75.70;;;;;;2086503;28;20096;-82
2021/06/13 05:07:44;;;;;;;6.00;3.13;;;14.20;75.50;;;;;;2088284;28;20499;-82
2021/06/13 05:08:45;;;;;;;6.10;3.28;;;14.30;75.40;;;;;;2076708;28;20089;-82
2021/06/13 05:09:46;;;;;;;6.88;3.05;;;14.40;75.30;;;;;;2080506;28;20613;-82
2021/06/13 05:10:46;;;;;;;7.72;3.25;;;14.40;75.00;;;;;;2089769;28;20190;-81
2021/06/13 05:11:47;;;;;;;5.60;3.00;;;14.50;74.90;;;;;;2087928;28;20451;-81
2021/06/13 05:12:50;;;;;;;5.85;3.25;;;14.60;74.80;;;;;;2088834;28;20373;-82
2021/06/13 05:13:51;;;;;;;6.70;3.28;;;14.70;74.60;;;;;;2080274;28;20021;-81
2021/06/13 05:14:51;;;;;;;7.35;3.33;;;14.80;74.40;;;;;;2087923;28;20440;-82
2021/06/13 05:15:52;;;;;;;4.95;2.85;;;14.90;74.20;;;;;;2087429;28;20479;-81
2021/06/13 05:16:53;;;;;;;5.53;3.00;;;15.00;74.00;;;;;;2071715;28;20084;-82
2021/06/13 05:17:53;;;;;;;4.95;2.67;;;15.10;73.70;;;;;;2078451;28;20214;-81
2021/06/13 05:18:54;;;;;;;5.45;2.78;;;15.20;73.50;;;;;;2087129;28;20026;-81
2021/06/13 05:19:54;;;;;;;6.55;3.08;;;15.20;73.30;;;;;;2088060;28;20037;-81
2021/06/13 05:20:56;;;;;;;6.75;2.88;;;15.30;73.10;;;;;;2087337;28;20061;-81
2021/06/13 05:21:56;;;;;;;6.55;2.65;;;15.40;72.90;;;;;;2096386;28;20060;-81
2021/06/13 05:22:59;;;;;;;4.90;2.70;;;15.50;72.70;;;;;;2081981;28;20029;-81
2021/06/13 05:24:01;;;;;;;5.85;2.67;;;15.60;72.60;;;;;;2075768;28;20071;-81
2021/06/13 05:25:01;;;;;;;6.30;3.05;;;15.70;72.50;;;;;;2087206;28;20419;-81
2021/06/13 05:26:02;;;;;;;5.53;2.90;;;15.70;72.20;;;;;;2087714;28;20032;-81
2021/06/13 05:27:04;;;;;;;6.35;2.83;;;15.90;72.10;;;;;;2087971;28;20040;-82
2021/06/13 05:28:07;;;;;;;5.40;2.75;;;15.90;71.90;;;;;;2081439;28;20132;-81
2021/06/13 05:29:07;;;;;;;6.28;2.60;;;16.00;71.70;;;;;;2089324;28;20049;-82